createdAt,value
2023-04-17T00:01:41.105Z,3.30
2023-04-17T00:04:13.283Z,3.40
2023-04-17T00:06:44.650Z,3.25
2023-04-17T00:09:12.991Z,3.58
2023-04-17T00:11:41.192Z,3.40
2023-04-17T00:14:08.859Z,3.63
2023-04-17T00:16:36.892Z,3.20
2023-04-17T00:19:04.808Z,3.35
2023-04-17T00:21:32.949Z,3.67
2023-04-17T00:24:00.730Z,3.15
2023-04-17T00:26:28.745Z,3.63
2023-04-17T00:28:56.608Z,3.83
2023-04-17T00:31:24.630Z,3.50
2023-04-17T00:33:52.432Z,3.22
2023-04-17T00:36:20.588Z,3.45
2023-04-17T00:38:48.408Z,3.65
2023-04-17T00:41:16.606Z,4.00
2023-04-17T00:43:47.285Z,3.55
2023-04-17T00:46:15.652Z,3.67
2023-04-17T00:48:44.528Z,3.33
2023-04-17T00:51:12.897Z,3.78
2023-04-17T00:53:40.893Z,3.40
2023-04-17T00:56:09.504Z,3.22
2023-04-17T00:58:38.077Z,3.30
2023-04-17T01:01:06.855Z,3.35
2023-04-17T01:03:35.324Z,3.75
2023-04-17T01:06:03.861Z,3.40
2023-04-17T01:08:42.869Z,3.47
2023-04-17T01:11:11.725Z,4.55
2023-04-17T01:13:50.634Z,3.80
2023-04-17T01:16:19.377Z,3.90
2023-04-17T01:18:49.395Z,3.65
2023-04-17T01:21:17.959Z,3.90
2023-04-17T01:23:48.657Z,4.10
2023-04-17T01:26:19.213Z,3.83
2023-04-17T01:28:51.845Z,3.85
2023-04-17T01:31:21.531Z,5.53
2023-04-17T01:33:50.641Z,8.18
2023-04-17T01:36:18.781Z,9.45
2023-04-17T01:38:46.491Z,10.70
2023-04-17T01:41:14.613Z,10.05
2023-04-17T01:43:45.481Z,10.25
2023-04-17T01:46:13.918Z,11.13
2023-04-17T01:48:41.861Z,11.02
2023-04-17T01:51:10.078Z,11.35
2023-04-17T01:53:40.656Z,12.18
2023-04-17T01:56:08.832Z,12.75
2023-04-17T01:58:36.664Z,13.68
2023-04-17T02:01:06.168Z,13.25
2023-04-17T02:03:34.139Z,13.57
2023-04-17T02:06:02.312Z,13.63
2023-04-17T02:08:30.131Z,13.45
2023-04-17T02:11:00.108Z,13.25
2023-04-17T02:13:28.293Z,13.55
2023-04-17T02:15:57.142Z,12.80
2023-04-17T02:18:29.248Z,13.77
2023-04-17T02:20:57.276Z,14.10
2023-04-17T02:23:25.197Z,14.43
2023-04-17T02:25:53.128Z,12.70
2023-04-17T02:28:20.885Z,13.80
2023-04-17T02:30:51.030Z,12.35
2023-04-17T02:33:19.396Z,13.77
2023-04-17T02:35:48.152Z,14.35
2023-04-17T02:38:20.332Z,14.60
2023-04-17T02:40:48.401Z,13.57
2023-04-17T02:43:17.235Z,14.02
2023-04-17T02:45:45.512Z,14.30
2023-04-17T02:48:14.106Z,13.50
2023-04-17T02:50:42.086Z,14.27
2023-04-17T02:53:14.911Z,14.25
2023-04-17T02:55:42.986Z,15.10
2023-04-17T02:58:11.439Z,14.57
2023-04-17T03:00:40.129Z,14.60
2023-04-17T03:03:10.904Z,14.20
2023-04-17T03:05:39.151Z,14.77
2023-04-17T03:08:07.265Z,14.00
2023-04-17T03:10:43.599Z,14.98
2023-04-17T03:13:11.357Z,14.15
2023-04-17T03:15:39.418Z,14.80
2023-04-17T03:18:07.250Z,14.32
2023-04-17T03:20:35.273Z,14.75
2023-04-17T03:23:03.253Z,15.43
2023-04-17T03:25:31.311Z,14.52
2023-04-17T03:27:59.089Z,14.77
2023-04-17T03:30:32.189Z,15.13
2023-04-17T03:33:03.954Z,14.35
2023-04-17T03:35:33.343Z,16.25
2023-04-17T03:38:05.093Z,14.80
2023-04-17T03:40:33.851Z,16.23
2023-04-17T03:43:01.994Z,15.55
2023-04-17T03:45:31.536Z,16.33
2023-04-17T03:47:59.613Z,16.10
2023-04-17T03:50:27.700Z,16.40
2023-04-17T03:52:57.440Z,15.20
2023-04-17T03:55:30.007Z,16.15
2023-04-17T03:57:58.516Z,16.23
2023-04-17T04:00:31.735Z,16.02
2023-04-17T04:03:04.852Z,17.25
2023-04-17T04:05:40.289Z,16.75
2023-04-17T04:08:09.816Z,17.30
2023-04-17T04:10:51.501Z,17.30
2023-04-17T04:13:25.870Z,17.42
2023-04-17T04:15:58.394Z,17.42
2023-04-17T04:18:28.890Z,17.70
2023-04-17T04:20:59.113Z,17.20
2023-04-17T04:23:33.713Z,19.42
2023-04-17T04:26:02.274Z,18.40
2023-04-17T04:28:52.389Z,19.00
2023-04-17T04:31:30.598Z,18.65
2023-04-17T04:34:01.338Z,18.92
2023-04-17T04:36:30.347Z,19.25
2023-04-17T04:39:20.975Z,19.40
2023-04-17T04:41:51.357Z,17.75
2023-04-17T04:46:53.161Z,17.70
2023-04-17T04:49:21.369Z,18.60
2023-04-17T04:51:52.090Z,19.85
2023-04-17T04:56:54.991Z,18.90
2023-04-17T04:59:23.318Z,18.45
2023-04-17T05:02:01.326Z,19.60
2023-04-17T05:04:29.471Z,19.88
2023-04-17T05:07:01.431Z,19.92
2023-04-17T05:09:31.612Z,19.10
2023-04-17T05:12:00.167Z,20.52
2023-04-17T05:14:28.406Z,19.70
2023-04-17T05:16:56.777Z,21.27
2023-04-17T05:19:25.848Z,20.52
2023-04-17T05:21:58.713Z,20.38
2023-04-17T05:24:26.611Z,21.02
2023-04-17T05:26:55.233Z,20.48
2023-04-17T05:29:25.269Z,20.15
2023-04-17T05:31:55.135Z,19.75
2023-04-17T05:34:42.946Z,20.92
2023-04-17T05:37:12.032Z,20.30
2023-04-17T05:39:39.774Z,20.20
2023-04-17T05:42:09.505Z,20.77
2023-04-17T05:44:37.653Z,20.80
2023-04-17T05:47:06.205Z,20.70
2023-04-17T05:49:33.965Z,20.50
2023-04-17T05:52:02.185Z,20.55
2023-04-17T05:54:30.410Z,20.13
2023-04-17T05:56:59.660Z,21.15
2023-04-17T05:59:27.572Z,19.52
2023-04-17T06:01:55.823Z,21.15
2023-04-17T06:04:24.057Z,19.15
2023-04-17T06:06:52.886Z,20.05
2023-04-17T06:09:23.461Z,20.67
2023-04-17T06:11:53.671Z,20.20
2023-04-17T06:14:21.461Z,18.38
2023-04-17T06:16:49.664Z,20.10
2023-04-17T06:19:20.873Z,19.58
2023-04-17T06:21:48.917Z,20.50
2023-04-17T06:24:16.934Z,20.73
2023-04-17T06:26:48.601Z,19.52
2023-04-17T06:29:17.753Z,20.30
2023-04-17T06:31:46.623Z,18.38
2023-04-17T06:34:17.544Z,19.67
2023-04-17T06:36:48.376Z,19.30
2023-04-17T06:39:20.338Z,20.30
2023-04-17T06:41:50.315Z,19.85
2023-04-17T06:44:27.136Z,18.58
2023-04-17T06:46:56.054Z,19.48
2023-04-17T06:49:24.985Z,18.65
2023-04-17T06:51:53.014Z,18.50
2023-04-17T06:54:20.828Z,18.33
2023-04-17T06:56:48.837Z,20.40
2023-04-17T06:59:17.613Z,18.52
2023-04-17T07:01:46.221Z,19.90
2023-04-17T07:04:14.142Z,19.48
2023-04-17T07:06:42.177Z,19.25
2023-04-17T07:09:09.993Z,19.60
2023-04-17T07:11:37.989Z,19.75
2023-04-17T07:14:06.304Z,20.70
2023-04-17T07:16:34.365Z,20.15
2023-04-17T07:19:02.076Z,19.10
2023-04-17T07:21:30.070Z,19.67
2023-04-17T07:23:57.781Z,19.67
2023-04-17T07:26:25.940Z,18.92
2023-04-17T07:28:53.738Z,19.08
2023-04-17T07:31:22.279Z,19.75
2023-04-17T07:33:50.637Z,16.85
2023-04-17T07:36:18.609Z,17.85
2023-04-17T07:38:46.368Z,15.65
2023-04-17T07:41:14.489Z,15.52
2023-04-17T07:43:42.332Z,15.90
2023-04-17T07:46:10.445Z,15.40
2023-04-17T07:48:39.310Z,15.68
2023-04-17T07:51:07.847Z,15.65
2023-04-17T07:53:37.358Z,12.60
2023-04-17T07:56:06.530Z,12.00
2023-04-17T07:58:35.869Z,10.23
2023-04-17T08:01:07.273Z,8.60
2023-04-17T08:03:35.136Z,8.68
2023-04-17T08:06:03.314Z,9.55
2023-04-17T08:08:31.030Z,7.88
2023-04-17T08:10:59.016Z,7.85
2023-04-17T08:13:26.918Z,7.80
2023-04-17T08:15:56.986Z,7.90
2023-04-17T08:18:24.795Z,7.40
2023-04-17T08:20:53.212Z,6.30
2023-04-17T08:23:21.134Z,5.88
2023-04-17T08:25:49.313Z,6.57
2023-04-17T08:28:19.231Z,6.15
2023-04-17T08:30:47.334Z,5.88
2023-04-17T08:33:17.007Z,5.80
2023-04-17T08:35:46.046Z,5.22
2023-04-17T08:38:14.909Z,4.88
2023-04-17T08:40:46.596Z,4.70
2023-04-17T08:45:50.266Z,5.30
2023-04-17T08:48:18.140Z,4.57
2023-04-17T08:50:48.994Z,5.03
2023-04-17T08:53:20.612Z,5.13
2023-04-17T08:55:48.992Z,5.53
2023-04-17T08:58:19.003Z,5.13
2023-04-17T09:00:47.078Z,5.93
2023-04-17T09:03:15.512Z,6.07
2023-04-17T09:05:46.270Z,5.70
2023-04-17T09:08:20.801Z,5.03
2023-04-17T09:10:51.436Z,5.35
2023-04-17T09:13:21.861Z,5.53
2023-04-17T09:16:06.154Z,5.70
2023-04-17T09:18:37.459Z,6.32
2023-04-17T09:23:51.807Z,6.15
2023-04-17T09:26:23.966Z,6.38
2023-04-17T09:29:04.050Z,6.15
2023-04-17T09:31:34.778Z,5.95
2023-04-17T09:34:04.883Z,6.10
2023-04-17T09:36:34.720Z,6.07
2023-04-17T09:39:18.030Z,6.10
2023-04-17T09:41:46.736Z,5.40
2023-04-17T09:44:26.359Z,5.80
2023-04-17T09:46:54.920Z,6.18
2023-04-17T09:49:34.520Z,6.22
2023-04-17T09:52:03.717Z,5.60
2023-04-17T09:54:31.774Z,5.90
2023-04-17T09:57:03.780Z,5.68
2023-04-17T09:59:32.077Z,4.93
2023-04-17T10:02:01.690Z,4.90
2023-04-17T10:04:30.008Z,4.25
2023-04-17T10:07:01.116Z,4.60
2023-04-17T10:09:31.233Z,4.40
2023-04-17T10:12:02.072Z,5.25
2023-04-17T10:14:40.283Z,4.77
2023-04-17T10:17:34.466Z,4.93
2023-04-17T10:20:20.262Z,4.88
2023-04-17T10:22:54.290Z,3.78
2023-04-17T10:25:25.765Z,3.70
2023-04-17T10:27:55.216Z,3.95
2023-04-17T10:30:23.929Z,4.50
2023-04-17T10:33:20.004Z,4.63
2023-04-17T10:35:48.560Z,5.60
2023-04-17T10:40:39.906Z,4.65
2023-04-17T10:43:28.511Z,4.75
2023-04-17T10:46:05.984Z,4.22
2023-04-17T10:48:38.930Z,4.50
2023-04-17T10:51:27.107Z,4.85
2023-04-17T10:54:10.345Z,4.72
2023-04-17T10:56:48.765Z,4.30
2023-04-17T10:59:23.548Z,4.72
2023-04-17T11:01:53.051Z,4.78
2023-04-17T11:04:24.103Z,4.88
2023-04-17T11:06:55.941Z,4.65
2023-04-17T11:09:26.793Z,5.10
2023-04-17T11:14:47.904Z,4.43
2023-04-17T11:17:16.039Z,4.78
2023-04-17T11:19:45.848Z,5.10
2023-04-17T11:22:19.507Z,4.63
2023-04-17T11:24:50.625Z,5.15
2023-04-17T11:27:18.611Z,5.10
2023-04-17T11:29:48.975Z,4.90
2023-04-17T11:32:16.836Z,5.07
2023-04-17T11:34:45.690Z,5.13
2023-04-17T11:37:15.106Z,4.97
2023-04-17T11:39:44.300Z,5.20
2023-04-17T11:42:14.250Z,4.43
2023-04-17T11:44:44.569Z,4.82
2023-04-17T11:47:23.461Z,5.45
2023-04-17T11:49:51.856Z,5.30
2023-04-17T11:52:20.007Z,5.22
2023-04-17T11:54:48.171Z,5.20
2023-04-17T11:57:16.379Z,6.45
2023-04-17T11:59:45.601Z,6.22
2023-04-17T12:02:15.211Z,5.90
2023-04-17T12:04:46.408Z,6.55
2023-04-17T12:07:23.965Z,6.25
2023-04-17T12:09:59.627Z,6.43
2023-04-17T12:12:27.541Z,6.25
2023-04-17T12:14:59.160Z,6.10
2023-04-17T12:17:27.381Z,6.28
2023-04-17T12:19:56.034Z,5.70
2023-04-17T12:22:24.134Z,6.07
2023-04-17T12:24:52.332Z,5.80
2023-04-17T12:27:20.524Z,5.80
2023-04-17T12:29:48.709Z,6.20
2023-04-17T12:32:16.700Z,6.45
2023-04-17T12:34:44.906Z,6.15
2023-04-17T12:37:12.803Z,5.78
2023-04-17T12:39:41.270Z,6.03
2023-04-17T12:42:09.218Z,5.80
2023-04-17T12:44:37.382Z,6.03
2023-04-17T12:47:05.661Z,5.50
2023-04-17T12:49:33.934Z,5.72
2023-04-17T12:52:03.679Z,6.18
2023-04-17T12:54:33.073Z,5.78
2023-04-17T12:57:01.726Z,5.60
2023-04-17T12:59:32.588Z,5.47
2023-04-17T13:02:01.163Z,4.90
2023-04-17T13:04:29.879Z,5.63
2023-04-17T13:06:58.407Z,5.82
2023-04-17T13:09:26.686Z,5.57
2023-04-17T13:11:54.671Z,6.10
2023-04-17T13:14:23.022Z,6.00
2023-04-17T13:16:51.273Z,5.30
2023-04-17T13:19:20.042Z,5.30
2023-04-17T13:21:48.383Z,5.25
2023-04-17T13:24:16.903Z,5.65
2023-04-17T13:26:44.975Z,5.47
2023-04-17T13:29:13.920Z,5.85
2023-04-17T13:31:42.905Z,5.68
2023-04-17T13:34:11.727Z,5.43
2023-04-17T13:36:39.645Z,5.25
2023-04-17T13:39:10.110Z,5.07
2023-04-17T13:41:38.653Z,5.30
2023-04-17T13:44:07.000Z,5.00
2023-04-17T13:46:35.577Z,6.07
2023-04-17T13:49:03.868Z,5.60
2023-04-17T13:51:34.263Z,4.70
2023-04-17T13:54:04.551Z,4.72
2023-04-17T13:56:32.566Z,5.00
2023-04-17T13:59:00.904Z,4.55
2023-04-17T14:01:29.043Z,4.32
2023-04-17T14:04:02.807Z,4.63
2023-04-17T14:06:33.624Z,4.28
2023-04-17T14:09:01.863Z,3.88
2023-04-17T14:11:29.886Z,4.28
2023-04-17T14:14:00.369Z,4.28
2023-04-17T14:16:28.540Z,4.95
2023-04-17T14:18:59.325Z,4.57
2023-04-17T14:21:29.578Z,4.32
2023-04-17T14:23:59.905Z,4.63
2023-04-17T14:26:27.874Z,4.95
2023-04-17T14:28:56.503Z,4.57
2023-04-17T14:31:24.493Z,5.40
2023-04-17T14:33:52.692Z,5.07
2023-04-17T14:36:20.650Z,4.90
2023-04-17T14:38:51.284Z,5.00
2023-04-17T14:41:21.806Z,4.80
2023-04-17T14:43:50.598Z,4.78
2023-04-17T14:46:18.648Z,5.80
2023-04-17T14:48:55.438Z,5.25
2023-04-17T14:51:24.518Z,5.68
2023-04-17T14:53:53.348Z,6.13
2023-04-17T14:56:24.081Z,5.57
2023-04-17T14:58:52.530Z,6.00
2023-04-17T15:01:20.544Z,5.65
2023-04-17T15:03:51.554Z,6.22
2023-04-17T15:06:20.118Z,5.78
2023-04-17T15:08:48.656Z,5.68
2023-04-17T15:11:16.788Z,6.22
2023-04-17T15:13:47.215Z,6.13
2023-04-17T15:16:15.402Z,6.85
2023-04-17T15:18:43.792Z,6.30
2023-04-17T15:21:16.472Z,6.55
2023-04-17T15:23:45.066Z,5.68
2023-04-17T15:26:13.285Z,6.05
2023-04-17T15:28:41.504Z,7.38
2023-04-17T15:31:09.606Z,5.93
2023-04-17T15:33:41.396Z,6.63
2023-04-17T15:36:09.406Z,5.70
2023-04-17T15:38:37.694Z,5.88
2023-04-17T15:41:05.873Z,6.80
2023-04-17T15:43:34.038Z,6.90
2023-04-17T15:46:05.818Z,6.50
2023-04-17T15:48:35.362Z,6.63
2023-04-17T15:51:03.988Z,6.85
2023-04-17T15:53:32.607Z,6.85
2023-04-17T15:56:03.115Z,7.28
2023-04-17T15:58:33.548Z,7.22
2023-04-17T16:01:01.634Z,7.68
2023-04-17T16:03:29.919Z,7.18
2023-04-17T16:05:57.894Z,7.55
2023-04-17T16:08:26.986Z,6.68
2023-04-17T16:10:57.106Z,6.97
2023-04-17T16:13:25.283Z,7.45
2023-04-17T16:15:57.714Z,7.43
2023-04-17T16:18:27.974Z,7.10
2023-04-17T16:20:55.867Z,6.75
2023-04-17T16:23:24.061Z,6.38
2023-04-17T16:25:52.037Z,7.20
2023-04-17T16:28:20.168Z,6.75
2023-04-17T16:30:48.400Z,6.75
2023-04-17T16:33:18.766Z,7.25
2023-04-17T16:35:46.711Z,6.72
2023-04-17T16:38:14.888Z,8.23
2023-04-17T16:40:42.761Z,6.90
2023-04-17T16:43:11.169Z,6.60
2023-04-17T16:45:42.180Z,7.75
2023-04-17T16:48:11.445Z,6.60
2023-04-17T16:50:39.537Z,7.40
2023-04-17T16:53:10.793Z,7.75
2023-04-17T16:55:38.675Z,7.70
2023-04-17T16:58:07.031Z,8.50
2023-04-17T17:00:37.034Z,12.18
2023-04-17T17:03:05.483Z,12.80
2023-04-17T17:05:35.616Z,7.80
2023-04-17T17:08:03.798Z,8.02
2023-04-17T17:10:31.822Z,7.60
2023-04-17T17:13:02.404Z,6.90
2023-04-17T17:15:30.472Z,7.68
2023-04-17T17:17:58.718Z,6.57
2023-04-17T17:20:26.693Z,8.38
2023-04-17T17:22:58.006Z,7.60
2023-04-17T17:25:26.124Z,6.95
2023-04-17T17:27:54.338Z,7.32
2023-04-17T17:30:22.328Z,7.22
2023-04-17T17:32:50.746Z,7.95
2023-04-17T17:35:18.937Z,7.68
2023-04-17T17:37:47.114Z,9.02
2023-04-17T17:40:15.174Z,11.63
2023-04-17T17:42:45.158Z,11.68
2023-04-17T17:45:15.105Z,10.95
2023-04-17T17:47:43.318Z,8.68
2023-04-17T17:50:13.457Z,10.68
2023-04-17T17:52:41.675Z,9.82
2023-04-17T17:55:14.940Z,8.90
2023-04-17T17:57:49.294Z,11.80
2023-04-17T18:00:17.858Z,9.23
2023-04-17T18:02:46.383Z,8.32
2023-04-17T18:05:14.954Z,7.95
2023-04-17T18:07:43.314Z,7.85
2023-04-17T18:10:11.411Z,8.80
2023-04-17T18:12:39.811Z,8.98
2023-04-17T18:15:08.336Z,8.93
2023-04-17T18:17:36.509Z,8.23
2023-04-17T18:20:04.592Z,8.70
2023-04-17T18:22:33.083Z,9.10
2023-04-17T18:25:01.718Z,8.27
2023-04-17T18:27:30.946Z,8.63
2023-04-17T18:29:59.410Z,8.48
2023-04-17T18:32:27.967Z,9.20
2023-04-17T18:34:56.436Z,8.80
2023-04-17T18:37:27.043Z,9.32
2023-04-17T18:39:55.006Z,9.20
2023-04-17T18:42:23.273Z,9.48
2023-04-17T18:44:51.137Z,9.40
2023-04-17T18:47:19.378Z,9.85
2023-04-17T18:49:47.252Z,9.57
2023-04-17T18:52:15.453Z,10.75
2023-04-17T18:54:45.492Z,10.10
2023-04-17T18:59:30.998Z,11.43
2023-04-17T19:01:59.151Z,10.82
2023-04-17T19:04:27.400Z,11.40
2023-04-17T19:06:55.739Z,14.98
2023-04-17T19:09:23.999Z,12.05
2023-04-17T19:11:52.193Z,12.90
2023-04-17T19:14:19.901Z,11.15
2023-04-17T19:16:47.899Z,11.55
2023-04-17T19:19:15.811Z,11.88
2023-04-17T19:21:43.741Z,12.27
2023-04-17T19:24:14.020Z,14.40
2023-04-17T19:26:41.824Z,15.93
2023-04-17T19:29:09.872Z,18.92
2023-04-17T19:31:38.072Z,16.13
2023-04-17T19:34:07.070Z,13.20
2023-04-17T19:36:35.956Z,14.35
2023-04-17T19:39:04.957Z,11.55
2023-04-17T19:41:32.692Z,15.35
2023-04-17T19:44:00.755Z,13.38
2023-04-17T19:46:29.684Z,16.73
2023-04-17T19:48:57.939Z,17.08
2023-04-17T19:51:26.348Z,14.25
2023-04-17T19:53:54.440Z,24.33
2023-04-17T19:56:24.490Z,18.58
2023-04-17T19:58:52.526Z,14.27
2023-04-17T20:01:20.265Z,12.48
2023-04-17T20:03:48.413Z,11.18
2023-04-17T20:06:16.234Z,12.50
2023-04-17T20:08:44.311Z,12.73
2023-04-17T20:11:12.328Z,12.57
2023-04-17T20:13:40.593Z,12.48
2023-04-17T20:16:08.500Z,12.00
2023-04-17T20:18:37.900Z,12.32
2023-04-17T20:21:06.413Z,13.50
2023-04-17T20:23:34.539Z,12.98
2023-04-17T20:26:03.405Z,12.27
2023-04-17T20:28:31.533Z,14.30
2023-04-17T20:30:59.380Z,12.90
2023-04-17T20:33:27.436Z,11.88
2023-04-17T20:35:55.269Z,14.30
2023-04-17T20:38:23.554Z,13.77
2023-04-17T20:40:51.834Z,14.93
2023-04-17T20:43:19.864Z,14.68
2023-04-17T20:45:49.337Z,13.80
2023-04-17T20:48:18.963Z,13.43
2023-04-17T20:50:46.747Z,14.48
2023-04-17T20:53:14.772Z,14.00
2023-04-17T20:55:42.578Z,18.38
2023-04-17T20:58:10.653Z,17.38
2023-04-17T21:00:44.421Z,15.73
2023-04-17T21:03:15.723Z,14.00
2023-04-17T21:05:44.809Z,14.07
2023-04-17T21:08:13.050Z,14.38
2023-04-17T21:10:41.412Z,15.23
2023-04-17T21:13:09.524Z,15.07
2023-04-17T21:15:37.405Z,16.35
2023-04-17T21:18:05.636Z,16.15
2023-04-17T21:20:33.997Z,15.80
2023-04-17T21:23:02.008Z,15.20
2023-04-17T21:25:30.150Z,14.18
2023-04-17T21:27:58.313Z,13.85
2023-04-17T21:30:27.353Z,16.00
2023-04-17T21:32:56.096Z,16.17
2023-04-17T21:35:23.890Z,16.38
2023-04-17T21:37:51.981Z,16.17
2023-04-17T21:40:19.798Z,15.93
2023-04-17T21:42:47.796Z,16.85
2023-04-17T21:45:16.311Z,15.40
2023-04-17T21:47:44.347Z,16.42
2023-04-17T21:50:12.478Z,16.30
2023-04-17T21:52:40.550Z,13.50
2023-04-17T21:55:08.652Z,15.75
2023-04-17T21:57:36.706Z,14.82
2023-04-17T22:00:05.404Z,15.57
2023-04-17T22:02:34.950Z,15.45
2023-04-17T22:05:02.702Z,15.57
2023-04-17T22:07:34.106Z,15.30
2023-04-17T22:10:06.581Z,16.08
2023-04-17T22:12:34.661Z,16.13
2023-04-17T22:15:04.526Z,16.70
2023-04-17T22:17:32.652Z,14.45
2023-04-17T22:20:00.418Z,15.65
2023-04-17T22:22:28.456Z,15.73
2023-04-17T22:24:56.213Z,16.67
2023-04-17T22:27:24.321Z,15.80
2023-04-17T22:29:52.049Z,16.45
2023-04-17T22:32:22.583Z,16.02
2023-04-17T22:34:50.404Z,16.08
2023-04-17T22:37:18.756Z,15.80
2023-04-17T22:39:49.186Z,16.73
2023-04-17T22:42:17.244Z,16.20
2023-04-17T22:44:44.968Z,14.93
2023-04-17T22:47:12.976Z,14.27
2023-04-17T22:49:40.719Z,14.55
2023-04-17T22:52:09.326Z,14.52
2023-04-17T22:54:37.520Z,13.60
2023-04-17T22:57:10.656Z,14.27
2023-04-17T22:59:38.355Z,14.18
2023-04-17T23:02:06.378Z,13.68
2023-04-17T23:04:34.185Z,12.77
2023-04-17T23:07:02.448Z,13.65
2023-04-17T23:09:30.271Z,14.30
2023-04-17T23:11:58.337Z,13.65
2023-04-17T23:14:26.362Z,13.45
2023-04-17T23:16:54.422Z,13.18
2023-04-17T23:19:22.540Z,13.57
2023-04-17T23:21:50.626Z,13.45
2023-04-17T23:24:18.371Z,14.38
2023-04-17T23:26:48.867Z,14.68
2023-04-17T23:29:17.007Z,13.60
2023-04-17T23:31:45.670Z,14.55
2023-04-17T23:34:16.020Z,15.45
2023-04-17T23:36:44.169Z,14.13
2023-04-17T23:39:11.882Z,14.88
2023-04-17T23:41:42.846Z,15.55
2023-04-17T23:44:10.684Z,13.95
2023-04-17T23:46:38.839Z,13.48
2023-04-17T23:49:07.159Z,13.30
2023-04-17T23:51:35.208Z,13.93
2023-04-17T23:54:03.089Z,14.35
2023-04-17T23:56:31.391Z,14.95
2023-04-17T23:58:59.102Z,14.73
